createdAt,value
2023-02-19T00:03:13.928Z,3.05
2023-02-19T00:08:19.134Z,3.35
2023-02-19T00:13:25.039Z,3.17
2023-02-19T00:18:28.511Z,3.70
2023-02-19T00:23:33.723Z,4.00
2023-02-19T00:28:40.421Z,2.72
2023-02-19T00:33:44.207Z,3.95
2023-02-19T00:38:49.409Z,4.40
2023-02-19T00:43:53.666Z,4.38
2023-02-19T00:48:58.380Z,4.22
2023-02-19T00:54:03.288Z,3.65
2023-02-19T00:59:10.020Z,3.85
2023-02-19T01:04:14.073Z,4.20
2023-02-19T01:09:19.000Z,4.53
2023-02-19T01:14:22.864Z,3.53
2023-02-19T01:19:27.704Z,5.35
2023-02-19T01:24:32.848Z,4.95
2023-02-19T01:29:38.103Z,4.07
2023-02-19T01:34:42.755Z,3.85
2023-02-19T01:39:51.378Z,6.82
2023-02-19T01:45:20.410Z,4.80
2023-02-19T01:50:24.635Z,6.80
2023-02-19T01:55:29.528Z,6.63
2023-02-19T02:00:34.413Z,6.70
2023-02-19T02:05:45.814Z,6.15
2023-02-19T02:10:53.870Z,7.25
2023-02-19T02:16:04.963Z,6.45
2023-02-19T02:21:32.607Z,5.88
2023-02-19T02:26:46.037Z,5.82
2023-02-19T02:31:52.635Z,7.22
2023-02-19T02:36:56.606Z,5.75
2023-02-19T02:42:18.759Z,7.07
2023-02-19T02:47:44.963Z,5.75
2023-02-19T02:53:07.908Z,7.68
2023-02-19T02:58:11.837Z,8.32
2023-02-19T03:03:17.856Z,7.13
2023-02-19T03:08:26.562Z,7.95
2023-02-19T03:13:51.742Z,6.30
2023-02-19T03:19:15.034Z,7.50
2023-02-19T03:24:36.727Z,8.02
2023-02-19T03:29:41.058Z,7.13
2023-02-19T03:34:48.929Z,8.93
2023-02-19T03:39:54.216Z,9.80
2023-02-19T03:45:16.210Z,8.93
2023-02-19T03:50:23.212Z,8.18
2023-02-19T03:55:29.694Z,8.18
2023-02-19T04:00:35.411Z,7.05
2023-02-19T04:05:43.584Z,9.00
2023-02-19T04:10:47.590Z,8.38
2023-02-19T04:15:52.701Z,7.82
2023-02-19T04:20:57.663Z,5.70
2023-02-19T04:26:01.554Z,6.15
2023-02-19T04:31:05.332Z,8.25
2023-02-19T04:36:12.094Z,7.53
2023-02-19T04:41:15.931Z,6.40
2023-02-19T04:46:20.069Z,5.93
2023-02-19T04:51:26.100Z,4.68
2023-02-19T04:56:29.720Z,6.00
2023-02-19T05:01:33.308Z,5.40
2023-02-19T05:06:38.535Z,4.53
2023-02-19T05:11:42.123Z,4.90
2023-02-19T05:16:48.232Z,4.32
2023-02-19T05:21:53.059Z,3.03
2023-02-19T05:26:57.168Z,2.80
2023-02-19T05:32:01.628Z,2.33
2023-02-19T05:37:07.113Z,1.77
2023-02-19T05:42:10.698Z,1.90
2023-02-19T05:47:14.139Z,2.00
2023-02-19T05:52:21.239Z,1.83
2023-02-19T05:57:25.831Z,2.20
2023-02-19T06:02:29.590Z,2.17
2023-02-19T06:07:35.196Z,2.40
2023-02-19T06:12:38.984Z,1.98
2023-02-19T06:17:43.244Z,1.40
2023-02-19T06:22:49.345Z,2.70
2023-02-19T06:27:52.767Z,1.90
2023-02-19T06:32:56.155Z,1.60
2023-02-19T06:38:03.593Z,1.70
2023-02-19T06:43:07.039Z,1.80
2023-02-19T06:48:11.087Z,1.50
2023-02-19T06:53:16.000Z,1.83
2023-02-19T06:58:19.318Z,1.73
2023-02-19T07:03:23.157Z,2.05
2023-02-19T07:08:29.762Z,2.17
2023-02-19T07:13:33.324Z,2.17
2023-02-19T07:18:36.548Z,2.22
2023-02-19T07:23:41.938Z,2.00
2023-02-19T07:28:45.661Z,1.98
2023-02-19T07:33:49.740Z,2.35
2023-02-19T07:38:59.254Z,1.90
2023-02-19T07:49:07.880Z,1.88
2023-02-19T07:54:12.697Z,2.20
2023-02-19T07:59:19.672Z,2.03
2023-02-19T08:04:23.399Z,2.38
2023-02-19T08:09:29.620Z,2.78
2023-02-19T08:14:33.312Z,2.15
2023-02-19T08:19:36.725Z,2.33
2023-02-19T08:24:42.999Z,2.00
2023-02-19T08:29:46.332Z,2.20
2023-02-19T08:34:49.341Z,2.90
2023-02-19T08:39:54.792Z,3.08
2023-02-19T08:44:58.863Z,2.60
2023-02-19T08:50:02.348Z,2.90
2023-02-19T08:55:08.568Z,2.72
2023-02-19T09:00:13.450Z,2.05
2023-02-19T09:05:16.844Z,2.33
2023-02-19T09:10:21.825Z,2.80
2023-02-19T09:15:25.224Z,2.35
2023-02-19T09:20:29.433Z,2.40
2023-02-19T09:25:34.143Z,2.42
2023-02-19T09:30:37.557Z,1.75
2023-02-19T09:35:41.045Z,2.38
2023-02-19T09:40:46.941Z,2.20
2023-02-19T09:45:59.912Z,2.33
2023-02-19T09:51:03.249Z,1.77
2023-02-19T09:56:09.494Z,2.17
2023-02-19T10:01:13.242Z,1.35
2023-02-19T10:06:20.625Z,2.33
2023-02-19T10:11:26.012Z,2.42
2023-02-19T10:16:29.454Z,1.80
2023-02-19T10:21:32.844Z,1.92
2023-02-19T10:26:37.551Z,1.63
2023-02-19T10:31:40.792Z,2.00
2023-02-19T10:36:45.267Z,2.35
2023-02-19T10:41:54.965Z,2.33
2023-02-19T10:46:59.924Z,2.80
2023-02-19T10:52:17.497Z,2.55
2023-02-19T10:57:33.447Z,2.65
2023-02-19T11:02:36.768Z,2.22
2023-02-19T11:07:44.200Z,2.05
2023-02-19T11:12:52.330Z,1.50
2023-02-19T11:18:00.539Z,1.75
2023-02-19T11:23:08.134Z,0.90
2023-02-19T11:28:30.201Z,2.30
2023-02-19T11:33:34.160Z,1.75
2023-02-19T11:38:37.583Z,1.63
2023-02-19T11:43:56.588Z,1.88
2023-02-19T11:49:06.837Z,1.40
2023-02-19T11:54:21.071Z,1.58
2023-02-19T11:59:29.300Z,1.60
2023-02-19T12:05:02.168Z,1.55
2023-02-19T12:10:09.968Z,1.50
2023-02-19T12:15:43.589Z,1.77
2023-02-19T12:20:51.497Z,1.60
2023-02-19T12:25:58.524Z,1.30
2023-02-19T12:31:26.238Z,1.70
2023-02-19T12:36:33.068Z,2.20
2023-02-19T12:41:43.154Z,2.13
2023-02-19T12:46:49.130Z,2.33
2023-02-19T12:51:55.352Z,1.70
2023-02-19T12:57:02.008Z,1.98
2023-02-19T13:02:14.963Z,1.90
2023-02-19T13:07:20.166Z,2.10
2023-02-19T13:12:25.770Z,2.65
2023-02-19T13:17:33.344Z,2.80
2023-02-19T13:22:56.530Z,2.90
2023-02-19T13:28:13.419Z,1.92
2023-02-19T13:33:25.060Z,2.80
2023-02-19T13:38:29.281Z,2.75
2023-02-19T13:43:35.774Z,2.17
2023-02-19T13:48:47.703Z,1.65
2023-02-19T13:53:59.644Z,1.70
2023-02-19T13:59:27.354Z,2.58
2023-02-19T14:04:51.913Z,2.15
2023-02-19T14:10:00.906Z,1.77
2023-02-19T14:15:44.414Z,1.65
2023-02-19T14:20:52.317Z,2.17
2023-02-19T14:25:58.618Z,1.90
2023-02-19T14:31:05.177Z,1.70
2023-02-19T14:36:15.729Z,1.70
2023-02-19T14:41:18.837Z,1.70
2023-02-19T14:46:26.269Z,1.92
2023-02-19T14:51:35.506Z,1.77
2023-02-19T14:56:38.903Z,1.67
2023-02-19T15:01:42.314Z,1.80
2023-02-19T15:06:46.899Z,1.90
2023-02-19T15:11:50.940Z,1.85
2023-02-19T15:16:59.711Z,1.80
2023-02-19T15:22:04.557Z,2.03
2023-02-19T15:27:07.937Z,1.40
2023-02-19T15:32:23.433Z,1.40
2023-02-19T15:37:29.077Z,1.90
2023-02-19T15:42:34.278Z,1.50
2023-02-19T15:47:39.557Z,1.50
2023-02-19T15:52:47.147Z,2.05
2023-02-19T15:57:55.647Z,1.70
2023-02-19T16:08:09.980Z,1.60
2023-02-19T16:18:16.675Z,1.67
2023-02-19T16:23:24.756Z,1.92
2023-02-19T16:28:30.188Z,1.60
2023-02-19T16:33:36.609Z,1.80
2023-02-19T16:38:41.587Z,2.28
2023-02-19T16:43:44.783Z,2.28
2023-02-19T16:48:48.177Z,1.95
2023-02-19T16:53:52.991Z,1.63
2023-02-19T16:58:56.367Z,1.70
2023-02-19T17:04:01.011Z,1.73
2023-02-19T17:09:06.570Z,2.38
2023-02-19T17:14:10.249Z,1.70
2023-02-19T17:19:14.261Z,1.70
2023-02-19T17:24:19.126Z,2.00
2023-02-19T17:29:23.218Z,1.90
2023-02-19T17:34:26.714Z,2.58
2023-02-19T17:39:32.258Z,2.30
2023-02-19T17:44:36.533Z,2.22
2023-02-19T17:49:39.911Z,1.70
2023-02-19T17:54:45.380Z,2.25
2023-02-19T17:59:49.121Z,2.25
2023-02-19T18:04:52.936Z,1.85
2023-02-19T18:09:58.393Z,2.20
2023-02-19T18:15:02.045Z,2.03
2023-02-19T18:20:08.414Z,1.60
2023-02-19T18:25:24.420Z,2.05
2023-02-19T18:30:28.655Z,2.10
2023-02-19T18:35:34.639Z,1.58
2023-02-19T18:40:40.236Z,2.38
2023-02-19T18:45:47.551Z,1.58
2023-02-19T18:50:51.316Z,1.83
2023-02-19T18:55:56.991Z,2.28
2023-02-19T19:01:11.799Z,2.53
2023-02-19T19:06:42.077Z,2.75
2023-02-19T19:11:47.172Z,2.83
2023-02-19T19:16:50.777Z,2.88
2023-02-19T19:21:54.607Z,3.28
2023-02-19T19:27:00.187Z,3.47
2023-02-19T19:32:08.387Z,3.28
2023-02-19T19:37:12.490Z,3.10
2023-02-19T19:42:17.452Z,3.30
2023-02-19T19:47:20.935Z,2.83
2023-02-19T19:52:24.794Z,2.60
2023-02-19T19:57:30.162Z,2.80
2023-02-19T20:02:33.869Z,2.92
2023-02-19T20:07:37.742Z,2.78
2023-02-19T20:12:50.935Z,2.10
2023-02-19T20:17:54.936Z,2.67
2023-02-19T20:22:58.317Z,2.40
2023-02-19T20:28:03.818Z,2.00
2023-02-19T20:33:08.114Z,2.20
2023-02-19T20:38:15.426Z,2.33
2023-02-19T20:43:20.372Z,3.28
2023-02-19T20:48:23.703Z,2.85
2023-02-19T20:53:28.385Z,3.03
2023-02-19T20:58:33.663Z,2.47
2023-02-19T21:03:36.798Z,2.85
2023-02-19T21:08:41.983Z,2.50
2023-02-19T21:13:46.944Z,2.67
2023-02-19T21:18:51.406Z,2.63
2023-02-19T21:23:55.024Z,2.53
2023-02-19T21:29:10.038Z,2.75
2023-02-19T21:34:23.590Z,2.78
2023-02-19T21:39:27.715Z,2.30
2023-02-19T21:44:33.117Z,2.35
2023-02-19T21:49:36.951Z,2.95
2023-02-19T21:54:41.862Z,2.50
2023-02-19T21:59:47.021Z,2.38
2023-02-19T22:04:54.698Z,2.72
2023-02-19T22:10:01.069Z,4.22
2023-02-19T22:15:06.841Z,3.40
2023-02-19T22:20:10.542Z,3.65
2023-02-19T22:25:14.482Z,3.28
2023-02-19T22:30:19.875Z,3.72
2023-02-19T22:35:24.032Z,3.65
2023-02-19T22:40:27.478Z,4.05
2023-02-19T22:45:32.730Z,4.50
2023-02-19T22:50:36.421Z,4.07
2023-02-19T22:55:40.098Z,3.80
2023-02-19T23:00:45.114Z,3.70
2023-02-19T23:05:48.786Z,3.60
2023-02-19T23:10:52.128Z,3.22
2023-02-19T23:15:57.266Z,3.78
2023-02-19T23:21:00.922Z,3.78
2023-02-19T23:26:04.856Z,4.35
2023-02-19T23:31:12.016Z,3.50
2023-02-19T23:36:19.094Z,3.50
2023-02-19T23:41:24.790Z,3.15
2023-02-19T23:46:30.376Z,4.00
2023-02-19T23:51:34.060Z,3.60
2023-02-19T23:56:38.099Z,4.05
